| time (UTC) | temp F | wind direction | speed MPH | gust MPH | rain 1hr in | rain 24hr in | rain mn in | humidity % | barometer mb |
| 20260904010020 | 65 | 245 | 0.0 | 0.0 | 0.00 | 0.55 | 0.22 | 93 | 1008.7 |
| 20260904004525 | 65 | 247 | 0.0 | 0.0 | 0.00 | 0.55 | 0.22 | 93 | 1008.6 |
| 20260904003011 | 65 | 359 | 0.0 | 0.0 | 0.00 | 0.55 | 0.22 | 93 | 1008.4 |
| 20260904001512 | 66 | 246 | 0.0 | 0.0 | 0.00 | 0.55 | 0.22 | 92 | 1008.1 |
| 20260904000021 | 66 | 247 | 0.0 | 0.0 | 0.00 | 0.55 | 0.22 | 91 | 1007.7 |
| 20260903234525 | 67 | 359 | 0.0 | 0.0 | 0.00 | 0.55 | 0.22 | 91 | 1007.7 |
| 20260903233008 | 67 | 359 | 0.0 | 0.0 | 0.00 | 0.55 | 0.22 | 90 | 1007.5 |
| 20260903231514 | 68 | 359 | 0.0 | 0.0 | 0.00 | 0.55 | 0.22 | 90 | 1007.5 |
| 20260903230016 | 69 | 359 | 0.0 | 1.0 | 0.00 | 0.55 | 0.22 | 90 | 1007.6 |
| 20260903224531 | 69 | 359 | 0.0 | 2.0 | 0.00 | 0.55 | 0.22 | 90 | 1007.8 |
| 20260903223005 | 70 | 246 | 0.0 | 4.0 | 0.00 | 0.55 | 0.22 | 89 | 1007.7 |
| 20260903221514 | 70 | 311 | 0.0 | 0.0 | 0.00 | 0.55 | 0.22 | 89 | 1007.6 |
| 20260903220035 | 71 | 359 | 0.0 | 0.0 | 0.00 | 0.55 | 0.22 | 88 | 1007.6 |
| 20260903214524 | 71 | 311 | 1.0 | 5.0 | 0.00 | 0.55 | 0.22 | 88 | 1007.8 |
| 20260903213013 | 71 | 313 | 0.0 | 5.0 | 0.00 | 0.55 | 0.22 | 88 | 1007.9 |
| 20260903211513 | 71 | 359 | 0.0 | 5.0 | 0.00 | 0.55 | 0.22 | 87 | 1007.7 |
| 20260903210026 | 72 | 316 | 0.0 | 0.0 | 0.00 | 0.55 | 0.22 | 86 | 1007.7 |
| 20260903204526 | 72 | 316 | 0.0 | 4.0 | 0.00 | 0.55 | 0.22 | 85 | 1007.8 |
| 20260903203011 | 73 | 324 | 0.0 | 4.0 | 0.00 | 0.55 | 0.22 | 83 | 1007.5 |
| 20260903201523 | 74 | 309 | 0.0 | 8.0 | 0.00 | 0.55 | 0.22 | 81 | 1007.5 |
| 20260903200008 | 74 | 359 | 2.0 | 8.0 | 0.00 | 0.55 | 0.22 | 77 | 1007.6 |
| 20260903194513 | 75 | 324 | 5.0 | 10.0 | 0.00 | 0.55 | 0.22 | 69 | 1007.6 |
| 20260903193018 | 76 | 326 | 2.0 | 10.0 | 0.00 | 0.55 | 0.22 | 65 | 1007.5 |
| 20260903191522 | 77 | 359 | 9.0 | 13.0 | 0.00 | 0.55 | 0.22 | 63 | 1007.3 |
| 20260903190009 | 77 | 359 | 0.0 | 10.0 | 0.00 | 0.55 | 0.22 | 69 | 1007.3 |
| 20260903184515 | 75 | 339 | 5.0 | 12.0 | 0.00 | 0.55 | 0.22 | 70 | 1007.5 |
| 20260903183017 | 76 | 303 | 2.0 | 11.0 | 0.00 | 0.55 | 0.22 | 69 | 1007.6 |
| 20260903181525 | 76 | 359 | 4.0 | 13.0 | 0.00 | 0.55 | 0.22 | 73 | 1007.5 |
| 20260903180017 | 77 | 294 | 9.0 | 14.0 | 0.00 | 0.55 | 0.22 | 63 | 1007.6 |
| 20260903174524 | 76 | 337 | 6.0 | 13.0 | 0.00 | 0.55 | 0.22 | 75 | 1007.6 |
| 20260903173023 | 75 | 359 | 6.0 | 13.0 | 0.00 | 0.55 | 0.22 | 70 | 1007.6 |
| 20260903171520 | 75 | 359 | 4.0 | 15.0 | 0.00 | 0.55 | 0.22 | 76 | 1007.8 |
| 20260903170008 | 76 | 359 | 4.0 | 13.0 | 0.00 | 0.55 | 0.22 | 73 | 1007.8 |
| 20260903164515 | 76 | 287 | 10.0 | 19.0 | 0.00 | 0.55 | 0.22 | 69 | 1007.8 |
| 20260903163019 | 74 | 359 | 6.0 | 12.0 | 0.00 | 0.55 | 0.22 | 81 | 1007.8 |
| 20260903161522 | 73 | 359 | 1.0 | 9.0 | 0.00 | 0.55 | 0.22 | 85 | 1007.9 |
| 20260903160015 | 73 | 305 | 5.0 | 10.0 | 0.00 | 0.55 | 0.22 | 83 | 1008.0 |
| 20260903154519 | 71 | 289 | 0.0 | 9.0 | 0.00 | 0.55 | 0.22 | 94 | 1008.0 |
| 20260903153012 | 70 | 181 | 0.0 | 5.0 | 0.00 | 0.55 | 0.22 | 96 | 1008.2 |
| 20260903151519 | 69 | 283 | 0.0 | 10.0 | 0.00 | 0.55 | 0.22 | 97 | 1008.3 |
| 20260903150023 | 69 | 10 | 0.0 | 7.0 | 0.00 | 0.55 | 0.22 | 97 | 1008.5 |
| 20260903144519 | 68 | 236 | 0.0 | 0.0 | 0.00 | 0.55 | 0.22 | 97 | 1008.6 |
| 20260903143018 | 68 | 274 | 0.0 | 1.0 | 0.00 | 0.55 | 0.22 | 97 | 1008.8 |
| 20260903141524 | 68 | 252 | 0.0 | 0.0 | 0.00 | 0.55 | 0.22 | 97 | 1008.7 |
| 20260903140006 | 67 | 216 | 0.0 | 1.0 | 0.00 | 0.55 | 0.22 | 97 | 1008.6 |
| 20260903134534 | 67 | 181 | 0.0 | 0.0 | 0.00 | 0.55 | 0.22 | 97 | 1008.6 |
| 20260903133021 | 66 | 226 | 0.0 | 0.0 | 0.00 | 0.55 | 0.22 | 97 | 1008.6 |
| 20260903131514 | 65 | 359 | 0.0 | 0.0 | 0.00 | 0.55 | 0.22 | 97 | 1008.7 |
| 20260903130022 | 65 | 359 | 0.0 | 0.0 | 0.01 | 0.55 | 0.22 | 97 | 1008.7 |
| 20260903124510 | 64 | 359 | 0.0 | 0.0 | 0.01 | 0.55 | 0.22 | 96 | 1008.8 |
| 20260903123025 | 64 | 359 | 0.0 | 0.0 | 0.01 | 0.55 | 0.22 | 97 | 1008.8 |
| 20260903121510 | 64 | 226 | 0.0 | 0.0 | 0.01 | 0.55 | 0.22 | 97 | 1009.0 |
| 20260903120018 | 63 | 226 | 0.0 | 0.0 | 0.00 | 0.54 | 0.21 | 96 | 1008.9 |
| 20260903114506 | 63 | 359 | 0.0 | 0.0 | 0.00 | 0.54 | 0.21 | 96 | 1008.9 |
| 20260903113015 | 63 | 359 | 0.0 | 0.0 | 0.00 | 0.54 | 0.21 | 96 | 1008.9 |
| 20260903111502 | 63 | 359 | 0.0 | 0.0 | 0.00 | 0.54 | 0.21 | 96 | 1008.9 |
| 20260903110014 | 63 | 226 | 0.0 | 0.0 | 0.00 | 0.54 | 0.21 | 96 | 1008.8 |
| 20260903104526 | 63 | 359 | 0.0 | 0.0 | 0.00 | 0.54 | 0.21 | 96 | 1008.8 |
| 20260903103014 | 63 | 359 | 0.0 | 0.0 | 0.00 | 0.54 | 0.21 | 96 | 1008.7 |
| 20260903101522 | 63 | 359 | 0.0 | 0.0 | 0.00 | 0.54 | 0.21 | 96 | 1008.5 |
| 20260903100011 | 63 | 359 | 0.0 | 0.0 | 0.00 | 0.54 | 0.21 | 96 | 1008.4 |
| 20260903094519 | 63 | 359 | 0.0 | 0.0 | 0.00 | 0.54 | 0.21 | 96 | 1008.1 |
| 20260903093017 | 63 | 234 | 0.0 | 1.0 | 0.00 | 0.54 | 0.21 | 96 | 1008.2 |
| 20260903091517 | 63 | 316 | 0.0 | 1.0 | 0.00 | 0.54 | 0.21 | 96 | 1008.4 |
| 20260903090010 | 63 | 320 | 0.0 | 0.0 | 0.00 | 0.54 | 0.21 | 96 | 1008.2 |
| 20260903084522 | 62 | 320 | 0.0 | 0.0 | 0.00 | 0.54 | 0.21 | 96 | 1008.3 |
| 20260903083009 | 63 | 359 | 0.0 | 0.0 | 0.00 | 0.54 | 0.21 | 96 | 1008.4 |
| 20260903081535 | 63 | 320 | 0.0 | 0.0 | 0.00 | 0.54 | 0.21 | 96 | 1008.5 |
| 20260903080009 | 63 | 320 | 0.0 | 0.0 | 0.00 | 0.54 | 0.21 | 96 | 1008.6 |
| 20260903074518 | 63 | 359 | 0.0 | 0.0 | 0.00 | 0.54 | 0.21 | 96 | 1008.7 |
| 20260903073008 | 63 | 320 | 0.0 | 0.0 | 0.00 | 0.54 | 0.21 | 96 | 1008.8 |
| 20260903071518 | 63 | 320 | 0.0 | 0.0 | 0.00 | 0.54 | 0.21 | 96 | 1009.0 |
| 20260903070008 | 63 | 320 | 0.0 | 0.0 | 0.00 | 0.54 | 0.21 | 96 | 1008.9 |
| 20260903064513 | 62 | 320 | 0.0 | 0.0 | 0.03 | 0.54 | 0.21 | 96 | 1008.8 |
| 20260903063022 | 62 | 320 | 0.0 | 0.0 | 0.03 | 0.54 | 0.21 | 96 | 1008.8 |
| 20260903061512 | 62 | 359 | 0.0 | 0.0 | 0.07 | 0.54 | 0.21 | 96 | 1008.9 |
| 20260903060022 | 62 | 359 | 0.0 | 0.0 | 0.12 | 0.54 | 0.21 | 96 | 1009.3 |
| 20260903054511 | 62 | 320 | 0.0 | 2.0 | 0.10 | 0.51 | 0.18 | 96 | 1009.3 |
| 20260903053020 | 62 | 319 | 1.0 | 11.0 | 0.14 | 0.50 | 0.17 | 96 | 1009.5 |
| 20260903051509 | 62 | 314 | 0.0 | 0.0 | 0.12 | 0.46 | 0.13 | 96 | 1009.3 |
| 20260903050018 | 62 | 314 | 0.0 | 0.0 | 0.09 | 0.42 | 0.09 | 95 | 1009.4 |
| 20260903044510 | 62 | 316 | 0.0 | 0.0 | 0.16 | 0.41 | 0.08 | 95 | 1009.6 |
| 20260903043020 | 62 | 359 | 0.0 | 0.0 | 0.16 | 0.36 | 0.03 | 95 | 1009.7 |
| 20260903041510 | 62 | 314 | 0.0 | 0.0 | 0.21 | 0.34 | 0.01 | 95 | 1009.4 |
| 20260903040018 | 62 | 315 | 0.0 | 0.0 | 0.23 | 0.33 | 0.33 | 95 | 1009.8 |
| 20260903034506 | 63 | 359 | 0.0 | 0.0 | 0.17 | 0.24 | 0.24 | 95 | 1009.9 |
| 20260903033017 | 63 | 316 | 0.0 | 2.0 | 0.14 | 0.20 | 0.20 | 95 | 1010.1 |
| 20260903031518 | 63 | 314 | 0.0 | 0.0 | 0.07 | 0.12 | 0.12 | 95 | 1009.9 |
| 20260903030014 | 63 | 10 | 0.0 | 1.0 | 0.07 | 0.10 | 0.10 | 95 | 1009.5 |
| 20260903024523 | 63 | 101 | 0.0 | 0.0 | 0.06 | 0.07 | 0.07 | 95 | 1009.9 |
| 20260903023023 | 63 | 104 | 0.0 | 1.0 | 0.05 | 0.06 | 0.06 | 94 | 1009.9 |
| 20260903021515 | 64 | 93 | 0.0 | 0.0 | 0.05 | 0.05 | 0.05 | 94 | 1010.4 |
| 20260903020008 | 64 | 95 | 0.0 | 0.0 | 0.03 | 0.03 | 0.03 | 93 | 1010.5 |
| 20260903014515 | 64 | 93 | 0.0 | 0.0 | 0.01 | 0.01 | 0.01 | 92 | 1010.8 |
| 20260903013021 | 65 | 95 | 0.0 | 0.0 | 0.01 | 0.01 | 0.01 | 91 | 1010.8 |
| 20260903011508 | 66 | 359 | 0.0 | 0.0 | 0.00 | 0.00 | 0.00 | 89 | 1010.8 |